sensor_id;sensor_type;location;lat;lon;timestamp;temperature;humidity
42965;DHT22;28604;51.204;22.552;2023-03-31T00:02:00;8.30;90.20
42965;DHT22;28604;51.204;22.552;2023-03-31T00:04:27;8.30;90.40
42965;DHT22;28604;51.204;22.552;2023-03-31T00:06:56;8.30;90.30
42965;DHT22;28604;51.204;22.552;2023-03-31T00:09:22;8.30;90.40
42965;DHT22;28604;51.204;22.552;2023-03-31T00:11:49;8.30;90.60
42965;DHT22;28604;51.204;22.552;2023-03-31T00:14:17;8.30;90.70
42965;DHT22;28604;51.204;22.552;2023-03-31T00:16:43;8.30;90.30
42965;DHT22;28604;51.204;22.552;2023-03-31T00:19:11;8.30;90.40
42965;DHT22;28604;51.204;22.552;2023-03-31T00:21:46;8.40;90.60
42965;DHT22;28604;51.204;22.552;2023-03-31T00:24:13;8.30;90.50
42965;DHT22;28604;51.204;22.552;2023-03-31T00:26:40;8.30;90.50
42965;DHT22;28604;51.204;22.552;2023-03-31T00:29:09;8.30;90.30
42965;DHT22;28604;51.204;22.552;2023-03-31T00:31:36;8.30;90.50
42965;DHT22;28604;51.204;22.552;2023-03-31T00:34:04;8.40;90.50
42965;DHT22;28604;51.204;22.552;2023-03-31T00:36:30;8.30;90.80
42965;DHT22;28604;51.204;22.552;2023-03-31T00:38:58;8.30;90.50
42965;DHT22;28604;51.204;22.552;2023-03-31T00:41:27;8.30;90.30
42965;DHT22;28604;51.204;22.552;2023-03-31T00:44:18;8.30;90.40
42965;DHT22;28604;51.204;22.552;2023-03-31T00:47:19;8.30;90.90
42965;DHT22;28604;51.204;22.552;2023-03-31T00:49:48;8.30;90.80
42965;DHT22;28604;51.204;22.552;2023-03-31T00:52:21;8.40;90.90
42965;DHT22;28604;51.204;22.552;2023-03-31T00:54:54;8.40;91.30
42965;DHT22;28604;51.204;22.552;2023-03-31T00:57:22;8.40;91.10
42965;DHT22;28604;51.204;22.552;2023-03-31T00:59:55;8.30;91.10
42965;DHT22;28604;51.204;22.552;2023-03-31T01:02:23;8.30;90.50
42965;DHT22;28604;51.204;22.552;2023-03-31T01:04:57;8.30;90.90
42965;DHT22;28604;51.204;22.552;2023-03-31T01:07:42;8.30;91.00
42965;DHT22;28604;51.204;22.552;2023-03-31T01:10:09;8.40;90.80
42965;DHT22;28604;51.204;22.552;2023-03-31T01:12:44;8.40;91.10
42965;DHT22;28604;51.204;22.552;2023-03-31T01:15:11;8.40;91.00
42965;DHT22;28604;51.204;22.552;2023-03-31T01:17:37;8.40;90.90
42965;DHT22;28604;51.204;22.552;2023-03-31T01:23:14;8.40;90.90
42965;DHT22;28604;51.204;22.552;2023-03-31T01:31:28;8.40;90.90
42965;DHT22;28604;51.204;22.552;2023-03-31T01:37:28;8.40;91.00
42965;DHT22;28604;51.204;22.552;2023-03-31T01:45:50;8.30;90.90
42965;DHT22;28604;51.204;22.552;2023-03-31T01:48:42;8.40;91.10
42965;DHT22;28604;51.204;22.552;2023-03-31T01:56:47;8.40;91.30
42965;DHT22;28604;51.204;22.552;2023-03-31T01:59:34;8.40;90.90
42965;DHT22;28604;51.204;22.552;2023-03-31T02:02:08;8.40;91.20
42965;DHT22;28604;51.204;22.552;2023-03-31T02:04:46;8.40;91.10
42965;DHT22;28604;51.204;22.552;2023-03-31T02:07:21;8.40;91.30
42965;DHT22;28604;51.204;22.552;2023-03-31T02:09:54;8.50;91.40
42965;DHT22;28604;51.204;22.552;2023-03-31T02:12:24;8.40;91.50
42965;DHT22;28604;51.204;22.552;2023-03-31T02:14:52;8.40;91.40
42965;DHT22;28604;51.204;22.552;2023-03-31T02:17:22;8.40;91.70
42965;DHT22;28604;51.204;22.552;2023-03-31T02:19:58;8.40;91.50
42965;DHT22;28604;51.204;22.552;2023-03-31T02:22:30;8.40;91.40
42965;DHT22;28604;51.204;22.552;2023-03-31T02:25:00;8.50;91.60
42965;DHT22;28604;51.204;22.552;2023-03-31T02:27:30;8.50;91.40
42965;DHT22;28604;51.204;22.552;2023-03-31T02:30:00;8.50;91.50
42965;DHT22;28604;51.204;22.552;2023-03-31T02:32:37;8.50;91.50
42965;DHT22;28604;51.204;22.552;2023-03-31T02:35:05;8.50;91.90
42965;DHT22;28604;51.204;22.552;2023-03-31T02:37:33;8.50;91.60
42965;DHT22;28604;51.204;22.552;2023-03-31T02:40:05;8.50;91.60
42965;DHT22;28604;51.204;22.552;2023-03-31T02:42:39;8.50;91.40
42965;DHT22;28604;51.204;22.552;2023-03-31T02:48:06;8.40;91.60
42965;DHT22;28604;51.204;22.552;2023-03-31T02:50:43;8.50;91.70
42965;DHT22;28604;51.204;22.552;2023-03-31T03:09:31;8.50;91.70
42965;DHT22;28604;51.204;22.552;2023-03-31T03:12:12;8.50;91.90
42965;DHT22;28604;51.204;22.552;2023-03-31T03:14:48;8.60;91.90
42965;DHT22;28604;51.204;22.552;2023-03-31T03:17:26;8.60;91.70
42965;DHT22;28604;51.204;22.552;2023-03-31T03:19:54;8.60;91.60
42965;DHT22;28604;51.204;22.552;2023-03-31T03:22:21;8.50;91.60
42965;DHT22;28604;51.204;22.552;2023-03-31T03:24:48;8.60;91.80
42965;DHT22;28604;51.204;22.552;2023-03-31T03:27:14;8.60;91.80
42965;DHT22;28604;51.204;22.552;2023-03-31T03:29:40;8.60;91.90
42965;DHT22;28604;51.204;22.552;2023-03-31T03:32:09;8.60;91.70
42965;DHT22;28604;51.204;22.552;2023-03-31T03:34:35;8.60;91.80
42965;DHT22;28604;51.204;22.552;2023-03-31T03:37:01;8.60;91.70
42965;DHT22;28604;51.204;22.552;2023-03-31T03:39:27;8.60;91.80
42965;DHT22;28604;51.204;22.552;2023-03-31T03:41:53;8.60;91.80
42965;DHT22;28604;51.204;22.552;2023-03-31T03:44:19;8.60;91.90
42965;DHT22;28604;51.204;22.552;2023-03-31T03:46:45;8.60;91.90
42965;DHT22;28604;51.204;22.552;2023-03-31T03:49:11;8.60;91.90
42965;DHT22;28604;51.204;22.552;2023-03-31T03:51:37;8.60;91.80
42965;DHT22;28604;51.204;22.552;2023-03-31T03:54:03;8.60;91.80
42965;DHT22;28604;51.204;22.552;2023-03-31T03:56:29;8.70;91.80
42965;DHT22;28604;51.204;22.552;2023-03-31T03:58:55;8.70;92.00
42965;DHT22;28604;51.204;22.552;2023-03-31T04:01:22;8.70;92.00
42965;DHT22;28604;51.204;22.552;2023-03-31T04:03:48;8.70;92.00
42965;DHT22;28604;51.204;22.552;2023-03-31T04:06:14;8.70;92.00
42965;DHT22;28604;51.204;22.552;2023-03-31T04:08:40;8.80;92.10
42965;DHT22;28604;51.204;22.552;2023-03-31T04:11:13;8.80;92.10
42965;DHT22;28604;51.204;22.552;2023-03-31T04:13:39;8.80;92.20
42965;DHT22;28604;51.204;22.552;2023-03-31T04:16:06;8.80;92.00
42965;DHT22;28604;51.204;22.552;2023-03-31T04:18:32;8.90;92.10
42965;DHT22;28604;51.204;22.552;2023-03-31T04:20:58;8.80;92.10
42965;DHT22;28604;51.204;22.552;2023-03-31T04:23:35;8.90;92.10
42965;DHT22;28604;51.204;22.552;2023-03-31T04:26:08;8.90;92.10
42965;DHT22;28604;51.204;22.552;2023-03-31T04:28:35;8.90;92.30
42965;DHT22;28604;51.204;22.552;2023-03-31T04:31:02;8.90;92.20
42965;DHT22;28604;51.204;22.552;2023-03-31T04:33:31;9.00;92.20
42965;DHT22;28604;51.204;22.552;2023-03-31T04:36:07;9.00;92.10
42965;DHT22;28604;51.204;22.552;2023-03-31T04:38:46;9.00;92.30
42965;DHT22;28604;51.204;22.552;2023-03-31T04:41:16;9.00;92.10
42965;DHT22;28604;51.204;22.552;2023-03-31T04:43:42;9.10;92.10
42965;DHT22;28604;51.204;22.552;2023-03-31T04:46:08;9.10;92.30
42965;DHT22;28604;51.204;22.552;2023-03-31T04:48:34;9.10;92.30
42965;DHT22;28604;51.204;22.552;2023-03-31T04:51:01;9.10;92.30
42965;DHT22;28604;51.204;22.552;2023-03-31T04:53:27;9.20;92.20
42965;DHT22;28604;51.204;22.552;2023-03-31T04:55:53;9.20;92.10
42965;DHT22;28604;51.204;22.552;2023-03-31T04:58:19;9.20;92.20
42965;DHT22;28604;51.204;22.552;2023-03-31T05:00:45;9.20;92.20
42965;DHT22;28604;51.204;22.552;2023-03-31T05:03:11;9.30;92.10
42965;DHT22;28604;51.204;22.552;2023-03-31T05:05:37;9.30;92.20
42965;DHT22;28604;51.204;22.552;2023-03-31T05:08:03;9.30;92.20
42965;DHT22;28604;51.204;22.552;2023-03-31T05:10:30;9.30;92.20
42965;DHT22;28604;51.204;22.552;2023-03-31T05:12:56;9.40;92.10
42965;DHT22;28604;51.204;22.552;2023-03-31T05:15:22;9.40;92.20
42965;DHT22;28604;51.204;22.552;2023-03-31T05:17:51;9.40;92.00
42965;DHT22;28604;51.204;22.552;2023-03-31T05:20:18;9.50;92.30
42965;DHT22;28604;51.204;22.552;2023-03-31T05:22:45;9.50;92.00
42965;DHT22;28604;51.204;22.552;2023-03-31T05:25:13;9.50;92.10
42965;DHT22;28604;51.204;22.552;2023-03-31T05:27:46;9.50;92.00
42965;DHT22;28604;51.204;22.552;2023-03-31T05:30:13;9.50;92.10
42965;DHT22;28604;51.204;22.552;2023-03-31T05:32:40;9.60;91.90
42965;DHT22;28604;51.204;22.552;2023-03-31T05:37:57;9.60;92.00
42965;DHT22;28604;51.204;22.552;2023-03-31T05:40:23;9.60;92.00
42965;DHT22;28604;51.204;22.552;2023-03-31T05:42:50;9.60;92.10
42965;DHT22;28604;51.204;22.552;2023-03-31T05:45:19;9.70;92.00
42965;DHT22;28604;51.204;22.552;2023-03-31T05:47:44;9.70;92.20
42965;DHT22;28604;51.204;22.552;2023-03-31T05:50:11;9.80;92.00
42965;DHT22;28604;51.204;22.552;2023-03-31T05:52:36;9.80;91.90
42965;DHT22;28604;51.204;22.552;2023-03-31T05:55:03;9.80;91.90
42965;DHT22;28604;51.204;22.552;2023-03-31T05:57:29;9.90;91.80
42965;DHT22;28604;51.204;22.552;2023-03-31T05:59:56;9.90;91.80
42965;DHT22;28604;51.204;22.552;2023-03-31T06:02:22;9.90;91.70
42965;DHT22;28604;51.204;22.552;2023-03-31T06:04:48;9.90;91.70
42965;DHT22;28604;51.204;22.552;2023-03-31T06:07:14;9.90;91.70
42965;DHT22;28604;51.204;22.552;2023-03-31T06:09:42;10.00;91.70
42965;DHT22;28604;51.204;22.552;2023-03-31T06:12:08;10.00;91.70
42965;DHT22;28604;51.204;22.552;2023-03-31T06:14:34;10.00;91.70
42965;DHT22;28604;51.204;22.552;2023-03-31T06:17:00;10.00;91.60
42965;DHT22;28604;51.204;22.552;2023-03-31T06:19:26;10.10;91.70
42965;DHT22;28604;51.204;22.552;2023-03-31T06:21:52;10.10;91.50
42965;DHT22;28604;51.204;22.552;2023-03-31T06:24:18;10.20;91.70
42965;DHT22;28604;51.204;22.552;2023-03-31T06:26:44;10.20;91.50
42965;DHT22;28604;51.204;22.552;2023-03-31T06:29:10;10.30;91.70
42965;DHT22;28604;51.204;22.552;2023-03-31T06:31:36;10.40;91.80
42965;DHT22;28604;51.204;22.552;2023-03-31T06:34:02;10.70;92.10
42965;DHT22;28604;51.204;22.552;2023-03-31T06:36:28;11.00;91.80
42965;DHT22;28604;51.204;22.552;2023-03-31T06:38:54;11.40;91.60
42965;DHT22;28604;51.204;22.552;2023-03-31T06:41:20;12.00;91.60
42965;DHT22;28604;51.204;22.552;2023-03-31T06:43:47;12.60;90.20
42965;DHT22;28604;51.204;22.552;2023-03-31T06:46:13;13.20;89.00
42965;DHT22;28604;51.204;22.552;2023-03-31T06:48:40;13.70;88.90
42965;DHT22;28604;51.204;22.552;2023-03-31T06:51:06;14.10;84.20
42965;DHT22;28604;51.204;22.552;2023-03-31T06:53:33;14.20;83.60
42965;DHT22;28604;51.204;22.552;2023-03-31T06:56:00;14.30;82.90
42965;DHT22;28604;51.204;22.552;2023-03-31T06:58:26;14.40;82.20
42965;DHT22;28604;51.204;22.552;2023-03-31T07:00:52;14.40;82.10
42965;DHT22;28604;51.204;22.552;2023-03-31T07:03:27;14.30;81.70
42965;DHT22;28604;51.204;22.552;2023-03-31T07:05:54;14.20;80.50
42965;DHT22;28604;51.204;22.552;2023-03-31T07:08:21;14.00;80.70
42965;DHT22;28604;51.204;22.552;2023-03-31T07:10:48;13.80;81.90
42965;DHT22;28604;51.204;22.552;2023-03-31T07:13:16;13.70;81.50
42965;DHT22;28604;51.204;22.552;2023-03-31T07:15:42;13.70;81.20
42965;DHT22;28604;51.204;22.552;2023-03-31T07:18:08;13.70;81.80
42965;DHT22;28604;51.204;22.552;2023-03-31T07:20:34;13.90;82.60
42965;DHT22;28604;51.204;22.552;2023-03-31T07:23:03;14.10;82.00
42965;DHT22;28604;51.204;22.552;2023-03-31T07:25:29;14.50;81.00
42965;DHT22;28604;51.204;22.552;2023-03-31T07:27:56;14.70;80.50
42965;DHT22;28604;51.204;22.552;2023-03-31T07:30:21;14.90;80.40
42965;DHT22;28604;51.204;22.552;2023-03-31T07:32:50;15.10;79.40
42965;DHT22;28604;51.204;22.552;2023-03-31T08:03:56;15.50;77.90
42965;DHT22;28604;51.204;22.552;2023-03-31T08:06:24;15.50;76.90
42965;DHT22;28604;51.204;22.552;2023-03-31T08:08:51;15.40;77.10
42965;DHT22;28604;51.204;22.552;2023-03-31T08:11:17;15.40;76.90
42965;DHT22;28604;51.204;22.552;2023-03-31T08:13:46;15.30;76.70
42965;DHT22;28604;51.204;22.552;2023-03-31T08:16:12;15.20;77.10
42965;DHT22;28604;51.204;22.552;2023-03-31T08:18:38;15.10;77.50
42965;DHT22;28604;51.204;22.552;2023-03-31T08:21:04;15.10;77.40
42965;DHT22;28604;51.204;22.552;2023-03-31T08:23:30;15.10;78.00
42965;DHT22;28604;51.204;22.552;2023-03-31T08:26:15;15.10;77.20
42965;DHT22;28604;51.204;22.552;2023-03-31T08:28:46;15.10;76.80
42965;DHT22;28604;51.204;22.552;2023-03-31T08:31:17;15.10;77.10
42965;DHT22;28604;51.204;22.552;2023-03-31T08:33:43;15.10;77.30
42965;DHT22;28604;51.204;22.552;2023-03-31T08:36:10;15.10;77.00
42965;DHT22;28604;51.204;22.552;2023-03-31T08:38:38;15.10;76.80
42965;DHT22;28604;51.204;22.552;2023-03-31T08:43:47;15.10;77.10
42965;DHT22;28604;51.204;22.552;2023-03-31T08:46:16;15.20;76.90
42965;DHT22;28604;51.204;22.552;2023-03-31T08:48:52;15.20;76.90
42965;DHT22;28604;51.204;22.552;2023-03-31T08:51:39;15.40;76.80
42965;DHT22;28604;51.204;22.552;2023-03-31T08:54:16;15.50;76.60
42965;DHT22;28604;51.204;22.552;2023-03-31T08:56:47;15.70;76.20
42965;DHT22;28604;51.204;22.552;2023-03-31T08:59:27;15.70;76.30
42965;DHT22;28604;51.204;22.552;2023-03-31T09:02:23;15.90;75.60
42965;DHT22;28604;51.204;22.552;2023-03-31T09:07:49;16.00;74.80
42965;DHT22;28604;51.204;22.552;2023-03-31T09:10:25;16.10;75.00
42965;DHT22;28604;51.204;22.552;2023-03-31T09:13:21;16.20;74.80
42965;DHT22;28604;51.204;22.552;2023-03-31T09:16:15;16.40;75.40
42965;DHT22;28604;51.204;22.552;2023-03-31T09:18:44;16.60;73.10
42965;DHT22;28604;51.204;22.552;2023-03-31T09:21:24;16.70;73.50
42965;DHT22;28604;51.204;22.552;2023-03-31T09:26:52;16.60;72.10
42965;DHT22;28604;51.204;22.552;2023-03-31T09:29:50;16.50;73.50
42965;DHT22;28604;51.204;22.552;2023-03-31T09:32:16;16.60;73.80
42965;DHT22;28604;51.204;22.552;2023-03-31T09:34:44;16.80;73.30
42965;DHT22;28604;51.204;22.552;2023-03-31T09:37:11;17.00;72.20
42965;DHT22;28604;51.204;22.552;2023-03-31T09:39:38;17.10;71.50
42965;DHT22;28604;51.204;22.552;2023-03-31T09:42:04;17.30;71.70
42965;DHT22;28604;51.204;22.552;2023-03-31T09:44:35;17.60;71.50
42965;DHT22;28604;51.204;22.552;2023-03-31T09:47:04;17.90;72.40
42965;DHT22;28604;51.204;22.552;2023-03-31T09:49:34;18.10;71.10
42965;DHT22;28604;51.204;22.552;2023-03-31T09:52:05;18.50;70.00
42965;DHT22;28604;51.204;22.552;2023-03-31T09:54:42;18.70;68.20
42965;DHT22;28604;51.204;22.552;2023-03-31T09:57:25;18.80;67.90
42965;DHT22;28604;51.204;22.552;2023-03-31T09:59:51;18.80;68.20
42965;DHT22;28604;51.204;22.552;2023-03-31T10:02:51;18.90;67.30
42965;DHT22;28604;51.204;22.552;2023-03-31T10:05:47;18.90;66.90
42965;DHT22;28604;51.204;22.552;2023-03-31T10:10:53;18.70;67.10
42965;DHT22;28604;51.204;22.552;2023-03-31T10:13:25;18.60;67.70
42965;DHT22;28604;51.204;22.552;2023-03-31T10:16:00;18.50;68.40
42965;DHT22;28604;51.204;22.552;2023-03-31T10:18:36;18.40;68.10
42965;DHT22;28604;51.204;22.552;2023-03-31T10:21:05;18.40;67.50
42965;DHT22;28604;51.204;22.552;2023-03-31T10:23:33;18.20;68.40
42965;DHT22;28604;51.204;22.552;2023-03-31T10:26:01;18.10;68.30
42965;DHT22;28604;51.204;22.552;2023-03-31T10:28:32;18.10;68.40
42965;DHT22;28604;51.204;22.552;2023-03-31T10:30:59;18.00;68.10
42965;DHT22;28604;51.204;22.552;2023-03-31T10:33:27;18.00;68.60
42965;DHT22;28604;51.204;22.552;2023-03-31T10:35:58;18.00;66.60
42965;DHT22;28604;51.204;22.552;2023-03-31T10:38:28;17.80;66.80
42965;DHT22;28604;51.204;22.552;2023-03-31T10:40:57;17.70;67.20
42965;DHT22;28604;51.204;22.552;2023-03-31T10:46:02;17.60;67.40
42965;DHT22;28604;51.204;22.552;2023-03-31T10:48:31;17.60;67.10
42965;DHT22;28604;51.204;22.552;2023-03-31T10:51:16;17.50;67.90
42965;DHT22;28604;51.204;22.552;2023-03-31T10:53:45;17.50;68.60
42965;DHT22;28604;51.204;22.552;2023-03-31T10:56:14;17.60;68.80
42965;DHT22;28604;51.204;22.552;2023-03-31T10:59:07;17.70;68.90
42965;DHT22;28604;51.204;22.552;2023-03-31T11:04:55;18.10;68.80
42965;DHT22;28604;51.204;22.552;2023-03-31T11:15:32;18.60;65.40
42965;DHT22;28604;51.204;22.552;2023-03-31T11:29:57;18.90;64.40
42965;DHT22;28604;51.204;22.552;2023-03-31T11:32:28;19.10;64.30
42965;DHT22;28604;51.204;22.552;2023-03-31T11:35:05;19.30;64.60
42965;DHT22;28604;51.204;22.552;2023-03-31T11:38:02;19.50;64.50
42965;DHT22;28604;51.204;22.552;2023-03-31T11:41:01;19.60;62.50
42965;DHT22;28604;51.204;22.552;2023-03-31T11:43:42;19.60;62.70
42965;DHT22;28604;51.204;22.552;2023-03-31T11:48:57;19.40;61.80
42965;DHT22;28604;51.204;22.552;2023-03-31T11:51:52;19.30;62.50
42965;DHT22;28604;51.204;22.552;2023-03-31T11:54:22;19.10;63.00
42965;DHT22;28604;51.204;22.552;2023-03-31T11:56:50;18.90;64.20
42965;DHT22;28604;51.204;22.552;2023-03-31T11:59:17;18.70;64.50
42965;DHT22;28604;51.204;22.552;2023-03-31T12:01:55;18.70;64.00
42965;DHT22;28604;51.204;22.552;2023-03-31T12:04:43;18.60;64.10
42965;DHT22;28604;51.204;22.552;2023-03-31T12:07:34;18.40;64.40
42965;DHT22;28604;51.204;22.552;2023-03-31T12:10:20;18.20;64.70
42965;DHT22;28604;51.204;22.552;2023-03-31T12:12:54;17.90;65.80
42965;DHT22;28604;51.204;22.552;2023-03-31T12:15:33;17.80;66.30
42965;DHT22;28604;51.204;22.552;2023-03-31T12:18:09;17.80;66.30
42965;DHT22;28604;51.204;22.552;2023-03-31T12:20:39;17.70;66.30
42965;DHT22;28604;51.204;22.552;2023-03-31T12:23:19;17.60;66.90
42965;DHT22;28604;51.204;22.552;2023-03-31T12:28:35;17.40;68.00
42965;DHT22;28604;51.204;22.552;2023-03-31T12:31:04;17.30;68.60
42965;DHT22;28604;51.204;22.552;2023-03-31T12:33:43;17.20;68.60
42965;DHT22;28604;51.204;22.552;2023-03-31T12:50:40;16.70;69.90
42965;DHT22;28604;51.204;22.552;2023-03-31T12:55:56;16.50;70.10
42965;DHT22;28604;51.204;22.552;2023-03-31T13:01:11;16.40;70.50
42965;DHT22;28604;51.204;22.552;2023-03-31T13:09:05;16.40;70.10
42965;DHT22;28604;51.204;22.552;2023-03-31T13:16:30;16.50;69.80
42965;DHT22;28604;51.204;22.552;2023-03-31T13:18:57;16.60;70.10
42965;DHT22;28604;51.204;22.552;2023-03-31T13:21:23;16.70;69.80
42965;DHT22;28604;51.204;22.552;2023-03-31T13:23:50;16.70;69.10
42965;DHT22;28604;51.204;22.552;2023-03-31T13:40:07;16.40;68.40
42965;DHT22;28604;51.204;22.552;2023-03-31T13:43:16;16.40;70.60
42965;DHT22;28604;51.204;22.552;2023-03-31T14:03:11;16.00;73.00
42965;DHT22;28604;51.204;22.552;2023-03-31T14:05:46;16.00;72.60
42965;DHT22;28604;51.204;22.552;2023-03-31T14:10:41;15.90;72.20
42965;DHT22;28604;51.204;22.552;2023-03-31T14:15:41;15.80;71.30
42965;DHT22;28604;51.204;22.552;2023-03-31T14:18:12;15.80;71.20
42965;DHT22;28604;51.204;22.552;2023-03-31T14:20:44;15.70;71.50
42965;DHT22;28604;51.204;22.552;2023-03-31T14:26:04;15.80;71.80
42965;DHT22;28604;51.204;22.552;2023-03-31T14:37:05;16.00;70.50
42965;DHT22;28604;51.204;22.552;2023-03-31T14:39:36;16.10;70.90
42965;DHT22;28604;51.204;22.552;2023-03-31T14:42:09;16.10;70.80
42965;DHT22;28604;51.204;22.552;2023-03-31T14:44:36;16.10;70.70
42965;DHT22;28604;51.204;22.552;2023-03-31T14:47:04;16.20;69.60
42965;DHT22;28604;51.204;22.552;2023-03-31T14:49:36;16.30;69.00
42965;DHT22;28604;51.204;22.552;2023-03-31T14:52:20;16.30;68.70
42965;DHT22;28604;51.204;22.552;2023-03-31T14:54:52;16.20;68.30
42965;DHT22;28604;51.204;22.552;2023-03-31T14:57:39;16.30;68.20
42965;DHT22;28604;51.204;22.552;2023-03-31T15:00:07;16.20;68.20
42965;DHT22;28604;51.204;22.552;2023-03-31T15:02:41;16.30;68.10
42965;DHT22;28604;51.204;22.552;2023-03-31T15:05:14;16.20;67.50
42965;DHT22;28604;51.204;22.552;2023-03-31T15:07:43;16.20;67.80
42965;DHT22;28604;51.204;22.552;2023-03-31T15:10:18;16.20;68.10
42965;DHT22;28604;51.204;22.552;2023-03-31T15:12:46;16.20;67.70
42965;DHT22;28604;51.204;22.552;2023-03-31T15:15:13;16.10;67.70
42965;DHT22;28604;51.204;22.552;2023-03-31T15:17:41;16.10;67.70
42965;DHT22;28604;51.204;22.552;2023-03-31T15:20:30;16.10;67.90
42965;DHT22;28604;51.204;22.552;2023-03-31T15:22:58;16.00;68.10
42965;DHT22;28604;51.204;22.552;2023-03-31T15:25:33;16.00;68.70
42965;DHT22;28604;51.204;22.552;2023-03-31T15:28:07;15.90;69.40
42965;DHT22;28604;51.204;22.552;2023-03-31T15:30:35;15.90;69.20
42965;DHT22;28604;51.204;22.552;2023-03-31T15:33:05;15.90;69.30
42965;DHT22;28604;51.204;22.552;2023-03-31T15:35:34;16.00;68.90
42965;DHT22;28604;51.204;22.552;2023-03-31T15:38:04;16.00;69.40
42965;DHT22;28604;51.204;22.552;2023-03-31T15:40:40;16.00;69.30
42965;DHT22;28604;51.204;22.552;2023-03-31T15:45:58;16.00;69.20
42965;DHT22;28604;51.204;22.552;2023-03-31T15:48:31;16.00;69.50
42965;DHT22;28604;51.204;22.552;2023-03-31T15:51:00;16.00;69.60
42965;DHT22;28604;51.204;22.552;2023-03-31T15:53:37;15.90;69.80
42965;DHT22;28604;51.204;22.552;2023-03-31T15:58:58;16.00;70.00
42965;DHT22;28604;51.204;22.552;2023-03-31T16:01:30;16.00;70.00
42965;DHT22;28604;51.204;22.552;2023-03-31T16:04:01;16.00;70.00
42965;DHT22;28604;51.204;22.552;2023-03-31T16:06:38;16.00;70.00
42965;DHT22;28604;51.204;22.552;2023-03-31T16:11:53;15.90;70.20
42965;DHT22;28604;51.204;22.552;2023-03-31T16:14:31;15.90;70.20
42965;DHT22;28604;51.204;22.552;2023-03-31T16:17:02;15.90;70.20
42965;DHT22;28604;51.204;22.552;2023-03-31T16:19:41;15.80;70.40
42965;DHT22;28604;51.204;22.552;2023-03-31T16:22:13;15.70;70.30
42965;DHT22;28604;51.204;22.552;2023-03-31T16:24:40;15.70;70.40
42965;DHT22;28604;51.204;22.552;2023-03-31T16:27:07;15.70;70.30
42965;DHT22;28604;51.204;22.552;2023-03-31T16:29:36;15.60;70.20
42965;DHT22;28604;51.204;22.552;2023-03-31T16:32:19;15.60;70.20
42965;DHT22;28604;51.204;22.552;2023-03-31T16:35:01;15.50;70.50
42965;DHT22;28604;51.204;22.552;2023-03-31T16:37:27;15.40;70.20
42965;DHT22;28604;51.204;22.552;2023-03-31T16:39:54;15.40;70.70
42965;DHT22;28604;51.204;22.552;2023-03-31T16:42:21;15.30;70.10
42965;DHT22;28604;51.204;22.552;2023-03-31T16:44:47;15.20;70.50
42965;DHT22;28604;51.204;22.552;2023-03-31T16:47:13;15.20;70.40
42965;DHT22;28604;51.204;22.552;2023-03-31T16:49:40;15.20;70.30
42965;DHT22;28604;51.204;22.552;2023-03-31T16:52:06;15.10;70.50
42965;DHT22;28604;51.204;22.552;2023-03-31T16:54:34;15.00;70.40
42965;DHT22;28604;51.204;22.552;2023-03-31T16:57:00;14.90;71.60
42965;DHT22;28604;51.204;22.552;2023-03-31T16:59:26;14.80;72.00
42965;DHT22;28604;51.204;22.552;2023-03-31T17:01:52;14.70;71.90
42965;DHT22;28604;51.204;22.552;2023-03-31T17:04:19;14.70;72.20
42965;DHT22;28604;51.204;22.552;2023-03-31T17:06:45;14.60;72.70
42965;DHT22;28604;51.204;22.552;2023-03-31T17:09:12;14.40;72.70
42965;DHT22;28604;51.204;22.552;2023-03-31T17:11:38;14.40;72.70
42965;DHT22;28604;51.204;22.552;2023-03-31T17:14:04;14.30;73.20
42965;DHT22;28604;51.204;22.552;2023-03-31T17:16:30;14.20;73.40
42965;DHT22;28604;51.204;22.552;2023-03-31T17:18:57;14.20;73.80
42965;DHT22;28604;51.204;22.552;2023-03-31T17:21:22;14.20;73.20
42965;DHT22;28604;51.204;22.552;2023-03-31T17:23:49;14.20;73.00
42965;DHT22;28604;51.204;22.552;2023-03-31T17:26:15;14.20;73.20
42965;DHT22;28604;51.204;22.552;2023-03-31T17:28:42;14.20;73.00
42965;DHT22;28604;51.204;22.552;2023-03-31T17:31:13;14.20;73.00
42965;DHT22;28604;51.204;22.552;2023-03-31T17:33:40;14.10;72.90
42965;DHT22;28604;51.204;22.552;2023-03-31T17:36:06;14.10;73.20
42965;DHT22;28604;51.204;22.552;2023-03-31T17:38:32;14.00;73.80
42965;DHT22;28604;51.204;22.552;2023-03-31T17:41:06;14.00;74.40
42965;DHT22;28604;51.204;22.552;2023-03-31T17:43:33;13.90;73.40
42965;DHT22;28604;51.204;22.552;2023-03-31T17:46:09;13.90;73.80
42965;DHT22;28604;51.204;22.552;2023-03-31T17:48:35;13.90;73.30
42965;DHT22;28604;51.204;22.552;2023-03-31T17:51:13;13.80;73.30
42965;DHT22;28604;51.204;22.552;2023-03-31T17:53:44;13.80;74.30
42965;DHT22;28604;51.204;22.552;2023-03-31T17:56:11;13.80;74.20
42965;DHT22;28604;51.204;22.552;2023-03-31T17:58:37;13.80;73.60
42965;DHT22;28604;51.204;22.552;2023-03-31T18:01:05;13.70;75.00
42965;DHT22;28604;51.204;22.552;2023-03-31T18:03:33;13.70;75.00
42965;DHT22;28604;51.204;22.552;2023-03-31T18:06:04;13.60;74.80
42965;DHT22;28604;51.204;22.552;2023-03-31T18:08:32;13.60;75.90
42965;DHT22;28604;51.204;22.552;2023-03-31T18:10:58;13.60;75.10
42965;DHT22;28604;51.204;22.552;2023-03-31T18:13:24;13.60;75.40
42965;DHT22;28604;51.204;22.552;2023-03-31T18:15:50;13.60;75.90
42965;DHT22;28604;51.204;22.552;2023-03-31T18:18:19;13.60;75.90
42965;DHT22;28604;51.204;22.552;2023-03-31T18:20:45;13.60;74.80
42965;DHT22;28604;51.204;22.552;2023-03-31T18:23:11;13.50;75.90
42965;DHT22;28604;51.204;22.552;2023-03-31T18:25:37;13.50;76.80
42965;DHT22;28604;51.204;22.552;2023-03-31T18:28:03;13.50;77.60
42965;DHT22;28604;51.204;22.552;2023-03-31T18:30:29;13.40;78.10
42965;DHT22;28604;51.204;22.552;2023-03-31T18:32:55;13.40;77.10
42965;DHT22;28604;51.204;22.552;2023-03-31T18:35:21;13.40;77.20
42965;DHT22;28604;51.204;22.552;2023-03-31T18:37:48;13.30;77.60
42965;DHT22;28604;51.204;22.552;2023-03-31T18:40:14;13.30;77.50
42965;DHT22;28604;51.204;22.552;2023-03-31T18:42:41;13.30;78.30
42965;DHT22;28604;51.204;22.552;2023-03-31T18:45:07;13.30;78.00
42965;DHT22;28604;51.204;22.552;2023-03-31T18:47:34;13.30;78.40
42965;DHT22;28604;51.204;22.552;2023-03-31T18:50:01;13.20;77.90
42965;DHT22;28604;51.204;22.552;2023-03-31T18:52:28;13.20;78.00
42965;DHT22;28604;51.204;22.552;2023-03-31T18:54:53;13.20;78.20
42965;DHT22;28604;51.204;22.552;2023-03-31T18:57:20;13.20;78.20
42965;DHT22;28604;51.204;22.552;2023-03-31T18:59:46;13.10;78.50
42965;DHT22;28604;51.204;22.552;2023-03-31T19:02:14;13.10;78.10
42965;DHT22;28604;51.204;22.552;2023-03-31T19:04:43;13.10;77.70